sensor_id;sensor_type;location;lat;lon;timestamp;pressure;altitude;pressure_sealevel;temperature;humidity
45078;BME280;60508;42.622;25.416;2023-06-10T00:01:20;96322.50;;;20.14;64.64
45078;BME280;60508;42.622;25.416;2023-06-10T00:03:50;96327.66;;;20.16;64.46
45078;BME280;60508;42.622;25.416;2023-06-10T00:06:16;96326.00;;;20.06;64.54
45078;BME280;60508;42.622;25.416;2023-06-10T00:08:43;96322.63;;;20.00;65.04
45078;BME280;60508;42.622;25.416;2023-06-10T00:11:09;96315.03;;;19.88;65.59
45078;BME280;60508;42.622;25.416;2023-06-10T00:13:36;96314.25;;;19.88;65.38
45078;BME280;60508;42.622;25.416;2023-06-10T00:16:03;96302.66;;;19.82;65.64
45078;BME280;60508;42.622;25.416;2023-06-10T00:18:30;96307.88;;;19.70;66.00
45078;BME280;60508;42.622;25.416;2023-06-10T00:20:57;96304.94;;;19.58;66.38
45078;BME280;60508;42.622;25.416;2023-06-10T00:23:38;96298.28;;;19.41;67.21
45078;BME280;60508;42.622;25.416;2023-06-10T00:26:05;96297.31;;;19.46;66.86
45078;BME280;60508;42.622;25.416;2023-06-10T00:28:31;96296.41;;;19.50;67.04
45078;BME280;60508;42.622;25.416;2023-06-10T00:30:58;96303.44;;;19.43;67.33
45078;BME280;60508;42.622;25.416;2023-06-10T00:33:24;96293.34;;;19.52;67.17
45078;BME280;60508;42.622;25.416;2023-06-10T00:35:50;96300.34;;;19.67;66.15
45078;BME280;60508;42.622;25.416;2023-06-10T00:38:17;96307.19;;;19.56;66.13
45078;BME280;60508;42.622;25.416;2023-06-10T00:40:51;96304.41;;;19.47;65.99
45078;BME280;60508;42.622;25.416;2023-06-10T00:43:18;96308.19;;;19.37;66.22
45078;BME280;60508;42.622;25.416;2023-06-10T00:45:44;96318.00;;;19.15;67.54
45078;BME280;60508;42.622;25.416;2023-06-10T00:48:11;96317.47;;;19.13;68.09
45078;BME280;60508;42.622;25.416;2023-06-10T00:50:37;96323.25;;;19.12;67.89
45078;BME280;60508;42.622;25.416;2023-06-10T00:53:07;96328.63;;;19.03;68.24
45078;BME280;60508;42.622;25.416;2023-06-10T00:55:34;96321.09;;;19.00;68.33
45078;BME280;60508;42.622;25.416;2023-06-10T00:58:07;96325.91;;;19.03;68.97
45078;BME280;60508;42.622;25.416;2023-06-10T01:00:34;96325.72;;;19.00;69.12
45078;BME280;60508;42.622;25.416;2023-06-10T01:03:03;96320.91;;;18.96;68.93
45078;BME280;60508;42.622;25.416;2023-06-10T01:05:39;96315.16;;;18.98;68.89
45078;BME280;60508;42.622;25.416;2023-06-10T01:08:16;96321.38;;;18.98;68.63
45078;BME280;60508;42.622;25.416;2023-06-10T01:10:56;96311.41;;;18.94;68.94
45078;BME280;60508;42.622;25.416;2023-06-10T01:13:25;96307.59;;;18.95;68.74
45078;BME280;60508;42.622;25.416;2023-06-10T01:16:03;96296.88;;;18.98;68.75
45078;BME280;60508;42.622;25.416;2023-06-10T01:18:31;96306.28;;;18.92;68.90
45078;BME280;60508;42.622;25.416;2023-06-10T01:20:58;96309.00;;;18.92;68.99
45078;BME280;60508;42.622;25.416;2023-06-10T01:23:24;96302.81;;;19.01;69.95
45078;BME280;60508;42.622;25.416;2023-06-10T01:26:02;96300.44;;;18.99;70.54
45078;BME280;60508;42.622;25.416;2023-06-10T01:28:47;96313.22;;;18.98;70.56
45078;BME280;60508;42.622;25.416;2023-06-10T01:31:43;96302.63;;;18.97;70.64
45078;BME280;60508;42.622;25.416;2023-06-10T01:34:17;96320.06;;;18.73;70.43
45078;BME280;60508;42.622;25.416;2023-06-10T01:36:47;96318.59;;;18.53;69.62
45078;BME280;60508;42.622;25.416;2023-06-10T01:39:15;96304.75;;;18.27;71.65
45078;BME280;60508;42.622;25.416;2023-06-10T01:41:43;96305.84;;;18.26;72.29
45078;BME280;60508;42.622;25.416;2023-06-10T01:44:10;96314.00;;;18.26;72.56
45078;BME280;60508;42.622;25.416;2023-06-10T01:46:39;96315.91;;;18.25;72.77
45078;BME280;60508;42.622;25.416;2023-06-10T01:49:13;96314.47;;;18.42;71.99
45078;BME280;60508;42.622;25.416;2023-06-10T01:51:40;96311.50;;;18.66;72.10
45078;BME280;60508;42.622;25.416;2023-06-10T01:54:07;96317.06;;;18.61;72.28
45078;BME280;60508;42.622;25.416;2023-06-10T01:56:42;96316.06;;;18.79;72.06
45078;BME280;60508;42.622;25.416;2023-06-10T01:59:08;96322.47;;;18.75;72.03
45078;BME280;60508;42.622;25.416;2023-06-10T02:01:35;96314.78;;;18.77;71.38
45078;BME280;60508;42.622;25.416;2023-06-10T02:04:02;96312.47;;;18.84;70.93
45078;BME280;60508;42.622;25.416;2023-06-10T02:06:32;96310.44;;;18.90;70.42
45078;BME280;60508;42.622;25.416;2023-06-10T02:08:58;96313.16;;;18.90;70.20
45078;BME280;60508;42.622;25.416;2023-06-10T02:11:32;96316.81;;;18.85;69.97
45078;BME280;60508;42.622;25.416;2023-06-10T02:13:59;96307.59;;;18.81;69.84
45078;BME280;60508;42.622;25.416;2023-06-10T02:16:25;96320.84;;;18.88;69.84
45078;BME280;60508;42.622;25.416;2023-06-10T02:18:52;96328.00;;;18.84;70.58
45078;BME280;60508;42.622;25.416;2023-06-10T02:21:19;96316.38;;;18.92;70.05
45078;BME280;60508;42.622;25.416;2023-06-10T02:23:45;96327.09;;;18.88;70.16
45078;BME280;60508;42.622;25.416;2023-06-10T02:26:12;96326.78;;;18.76;70.85
45078;BME280;60508;42.622;25.416;2023-06-10T02:28:42;96311.97;;;18.68;71.24
45078;BME280;60508;42.622;25.416;2023-06-10T02:31:09;96314.63;;;18.73;70.93
45078;BME280;60508;42.622;25.416;2023-06-10T02:33:44;96320.66;;;18.70;70.66
45078;BME280;60508;42.622;25.416;2023-06-10T02:36:11;96320.16;;;18.68;71.15
45078;BME280;60508;42.622;25.416;2023-06-10T02:38:42;96315.44;;;18.60;71.42
45078;BME280;60508;42.622;25.416;2023-06-10T02:41:08;96320.34;;;18.72;70.73
45078;BME280;60508;42.622;25.416;2023-06-10T02:43:43;96324.25;;;18.43;71.33
45078;BME280;60508;42.622;25.416;2023-06-10T02:46:10;96320.22;;;18.40;71.40
45078;BME280;60508;42.622;25.416;2023-06-10T02:48:43;96321.31;;;18.53;70.74
45078;BME280;60508;42.622;25.416;2023-06-10T02:51:19;96323.22;;;18.53;70.25
45078;BME280;60508;42.622;25.416;2023-06-10T02:53:49;96328.38;;;18.40;71.56
45078;BME280;60508;42.622;25.416;2023-06-10T02:56:16;96330.13;;;18.36;72.45
45078;BME280;60508;42.622;25.416;2023-06-10T02:58:43;96326.97;;;18.29;73.68
45078;BME280;60508;42.622;25.416;2023-06-10T03:01:13;96334.66;;;18.27;73.14
45078;BME280;60508;42.622;25.416;2023-06-10T03:03:58;96323.16;;;18.30;73.72
45078;BME280;60508;42.622;25.416;2023-06-10T03:06:25;96333.56;;;18.28;73.19
45078;BME280;60508;42.622;25.416;2023-06-10T03:08:56;96343.03;;;18.03;75.94
45078;BME280;60508;42.622;25.416;2023-06-10T03:11:31;96335.81;;;17.79;77.42
45078;BME280;60508;42.622;25.416;2023-06-10T03:13:58;96339.44;;;17.75;78.45
45078;BME280;60508;42.622;25.416;2023-06-10T03:16:26;96337.56;;;17.89;78.15
45078;BME280;60508;42.622;25.416;2023-06-10T03:18:53;96346.56;;;17.90;78.26
45078;BME280;60508;42.622;25.416;2023-06-10T03:21:20;96334.44;;;17.82;78.66
45078;BME280;60508;42.622;25.416;2023-06-10T03:23:47;96330.69;;;17.78;79.14
45078;BME280;60508;42.622;25.416;2023-06-10T03:26:13;96338.84;;;17.78;79.32
45078;BME280;60508;42.622;25.416;2023-06-10T03:28:44;96340.66;;;17.82;79.11
45078;BME280;60508;42.622;25.416;2023-06-10T03:31:11;96337.63;;;17.84;78.75
45078;BME280;60508;42.622;25.416;2023-06-10T03:33:45;96343.00;;;17.89;78.63
45078;BME280;60508;42.622;25.416;2023-06-10T03:36:12;96337.63;;;17.84;78.29
45078;BME280;60508;42.622;25.416;2023-06-10T03:38:39;96336.78;;;17.88;77.71
45078;BME280;60508;42.622;25.416;2023-06-10T03:41:16;96345.66;;;17.94;77.55
45078;BME280;60508;42.622;25.416;2023-06-10T03:43:44;96325.00;;;17.93;77.16
45078;BME280;60508;42.622;25.416;2023-06-10T03:46:12;96336.66;;;17.94;77.82
45078;BME280;60508;42.622;25.416;2023-06-10T03:48:46;96336.97;;;18.20;76.29
45078;BME280;60508;42.622;25.416;2023-06-10T03:51:15;96340.47;;;18.34;75.28
45078;BME280;60508;42.622;25.416;2023-06-10T03:53:41;96338.84;;;18.47;74.76
45078;BME280;60508;42.622;25.416;2023-06-10T03:56:11;96341.53;;;18.61;73.64
45078;BME280;60508;42.622;25.416;2023-06-10T03:58:39;96329.56;;;18.62;73.80
45078;BME280;60508;42.622;25.416;2023-06-10T04:01:06;96326.06;;;18.84;72.98
45078;BME280;60508;42.622;25.416;2023-06-10T04:03:35;96328.31;;;19.05;72.37
45078;BME280;60508;42.622;25.416;2023-06-10T04:06:02;96322.44;;;19.11;71.03
45078;BME280;60508;42.622;25.416;2023-06-10T04:08:28;96327.53;;;19.27;69.47
45078;BME280;60508;42.622;25.416;2023-06-10T04:10:55;96324.53;;;19.37;68.87
45078;BME280;60508;42.622;25.416;2023-06-10T04:13:22;96317.47;;;19.36;68.85
45078;BME280;60508;42.622;25.416;2023-06-10T04:15:53;96319.09;;;19.37;68.30
45078;BME280;60508;42.622;25.416;2023-06-10T04:18:32;96312.25;;;19.48;67.48
45078;BME280;60508;42.622;25.416;2023-06-10T04:21:03;96319.97;;;19.55;68.21
45078;BME280;60508;42.622;25.416;2023-06-10T04:23:32;96320.47;;;19.57;69.03
45078;BME280;60508;42.622;25.416;2023-06-10T04:25:58;96319.19;;;19.55;69.89
45078;BME280;60508;42.622;25.416;2023-06-10T04:28:26;96314.84;;;19.53;70.88
45078;BME280;60508;42.622;25.416;2023-06-10T04:30:53;96312.44;;;19.52;70.72
45078;BME280;60508;42.622;25.416;2023-06-10T04:33:28;96309.78;;;19.61;70.06
45078;BME280;60508;42.622;25.416;2023-06-10T04:35:55;96307.84;;;19.61;70.21
45078;BME280;60508;42.622;25.416;2023-06-10T04:38:24;96317.34;;;19.73;69.27
45078;BME280;60508;42.622;25.416;2023-06-10T04:40:50;96306.72;;;19.62;69.74
45078;BME280;60508;42.622;25.416;2023-06-10T04:43:24;96315.88;;;19.35;69.05
45078;BME280;60508;42.622;25.416;2023-06-10T04:45:51;96309.81;;;19.38;68.58
45078;BME280;60508;42.622;25.416;2023-06-10T04:48:18;96316.63;;;19.27;69.03
45078;BME280;60508;42.622;25.416;2023-06-10T04:50:44;96322.53;;;19.20;69.32
45078;BME280;60508;42.622;25.416;2023-06-10T04:53:19;96320.41;;;19.17;69.59
45078;BME280;60508;42.622;25.416;2023-06-10T04:55:47;96316.06;;;19.16;67.83
45078;BME280;60508;42.622;25.416;2023-06-10T04:58:14;96318.97;;;19.20;68.29
45078;BME280;60508;42.622;25.416;2023-06-10T05:00:41;96316.50;;;19.32;68.70
45078;BME280;60508;42.622;25.416;2023-06-10T05:03:08;96316.13;;;19.25;70.37
45078;BME280;60508;42.622;25.416;2023-06-10T05:05:42;96313.63;;;19.37;70.06
45078;BME280;60508;42.622;25.416;2023-06-10T05:08:09;96320.59;;;19.52;70.11
45078;BME280;60508;42.622;25.416;2023-06-10T05:10:35;96311.72;;;19.69;70.04
45078;BME280;60508;42.622;25.416;2023-06-10T05:13:09;96320.06;;;19.73;70.64
45078;BME280;60508;42.622;25.416;2023-06-10T05:15:36;96320.00;;;19.86;70.89
45078;BME280;60508;42.622;25.416;2023-06-10T05:18:03;96326.28;;;19.96;67.80
45078;BME280;60508;42.622;25.416;2023-06-10T05:20:29;96329.97;;;19.91;69.47
45078;BME280;60508;42.622;25.416;2023-06-10T05:22:56;96313.09;;;19.80;69.06
45078;BME280;60508;42.622;25.416;2023-06-10T05:25:31;96319.66;;;19.79;69.00
45078;BME280;60508;42.622;25.416;2023-06-10T05:27:59;96317.47;;;19.90;69.17
45078;BME280;60508;42.622;25.416;2023-06-10T05:30:25;96311.22;;;19.90;69.70
45078;BME280;60508;42.622;25.416;2023-06-10T05:32:52;96312.00;;;19.90;70.18
45078;BME280;60508;42.622;25.416;2023-06-10T05:35:19;96309.97;;;20.04;70.27
45078;BME280;60508;42.622;25.416;2023-06-10T05:37:53;96305.47;;;20.09;70.57
45078;BME280;60508;42.622;25.416;2023-06-10T05:40:20;96310.66;;;20.19;70.23
45078;BME280;60508;42.622;25.416;2023-06-10T05:42:46;96311.78;;;20.27;70.12
45078;BME280;60508;42.622;25.416;2023-06-10T05:45:20;96309.09;;;20.35;69.65
45078;BME280;60508;42.622;25.416;2023-06-10T05:47:47;96315.53;;;20.48;69.88
45078;BME280;60508;42.622;25.416;2023-06-10T05:50:14;96306.69;;;20.51;69.93
45078;BME280;60508;42.622;25.416;2023-06-10T05:52:49;96310.56;;;20.59;70.07
45078;BME280;60508;42.622;25.416;2023-06-10T05:55:16;96313.16;;;20.64;70.46
45078;BME280;60508;42.622;25.416;2023-06-10T05:57:43;96309.78;;;20.76;69.51
45078;BME280;60508;42.622;25.416;2023-06-10T06:00:18;96309.47;;;20.77;69.78
45078;BME280;60508;42.622;25.416;2023-06-10T06:02:45;96308.34;;;20.87;69.72
45078;BME280;60508;42.622;25.416;2023-06-10T06:05:12;96311.88;;;20.88;70.01
45078;BME280;60508;42.622;25.416;2023-06-10T06:07:39;96319.75;;;20.98;70.03
45078;BME280;60508;42.622;25.416;2023-06-10T06:10:06;96317.19;;;21.02;70.15
45078;BME280;60508;42.622;25.416;2023-06-10T06:12:32;96316.22;;;21.06;70.06
45078;BME280;60508;42.622;25.416;2023-06-10T06:14:59;96311.75;;;20.93;70.22
45078;BME280;60508;42.622;25.416;2023-06-10T06:17:25;96322.50;;;20.98;70.54
45078;BME280;60508;42.622;25.416;2023-06-10T06:19:59;96311.25;;;21.00;70.82
45078;BME280;60508;42.622;25.416;2023-06-10T06:22:26;96312.50;;;21.02;70.88
45078;BME280;60508;42.622;25.416;2023-06-10T06:24:53;96307.22;;;21.06;70.24
45078;BME280;60508;42.622;25.416;2023-06-10T06:27:28;96300.47;;;21.21;69.76
45078;BME280;60508;42.622;25.416;2023-06-10T06:29:55;96296.75;;;21.25;69.23
45078;BME280;60508;42.622;25.416;2023-06-10T06:32:21;96304.13;;;21.33;68.50
45078;BME280;60508;42.622;25.416;2023-06-10T06:34:48;96305.88;;;21.38;67.84
45078;BME280;60508;42.622;25.416;2023-06-10T06:37:27;96303.63;;;21.49;67.42
45078;BME280;60508;42.622;25.416;2023-06-10T06:40:07;96302.97;;;21.43;66.39
45078;BME280;60508;42.622;25.416;2023-06-10T06:42:43;96296.03;;;21.46;66.90
45078;BME280;60508;42.622;25.416;2023-06-10T06:45:28;96290.09;;;21.44;67.91
45078;BME280;60508;42.622;25.416;2023-06-10T06:47:55;96285.75;;;21.43;68.53
45078;BME280;60508;42.622;25.416;2023-06-10T06:50:22;96294.31;;;21.50;69.69
45078;BME280;60508;42.622;25.416;2023-06-10T06:52:49;96280.63;;;21.41;68.68
45078;BME280;60508;42.622;25.416;2023-06-10T06:55:15;96298.94;;;21.58;68.05
45078;BME280;60508;42.622;25.416;2023-06-10T06:57:50;96303.13;;;21.56;65.24
45078;BME280;60508;42.622;25.416;2023-06-10T07:00:17;96291.72;;;21.54;65.73
45078;BME280;60508;42.622;25.416;2023-06-10T07:02:43;96297.00;;;21.59;65.27
45078;BME280;60508;42.622;25.416;2023-06-10T07:05:10;96297.50;;;21.61;67.61
45078;BME280;60508;42.622;25.416;2023-06-10T07:07:36;96301.69;;;21.58;69.24
45078;BME280;60508;42.622;25.416;2023-06-10T07:12:34;96299.59;;;21.55;67.83
45078;BME280;60508;42.622;25.416;2023-06-10T07:15:03;96303.91;;;21.47;67.79
45078;BME280;60508;42.622;25.416;2023-06-10T07:17:31;96307.94;;;21.41;65.49
45078;BME280;60508;42.622;25.416;2023-06-10T07:19:57;96303.47;;;21.37;65.26
45078;BME280;60508;42.622;25.416;2023-06-10T07:22:35;96305.56;;;21.48;64.46
45078;BME280;60508;42.622;25.416;2023-06-10T07:25:02;96303.28;;;21.59;64.42
45078;BME280;60508;42.622;25.416;2023-06-10T07:27:28;96304.03;;;21.68;63.99
45078;BME280;60508;42.622;25.416;2023-06-10T07:30:01;96310.75;;;21.80;63.13
45078;BME280;60508;42.622;25.416;2023-06-10T07:32:28;96303.97;;;21.86;60.99
45078;BME280;60508;42.622;25.416;2023-06-10T07:34:54;96304.03;;;22.07;60.78
45078;BME280;60508;42.622;25.416;2023-06-10T07:37:21;96301.63;;;22.14;58.35
45078;BME280;60508;42.622;25.416;2023-06-10T07:39:54;96297.88;;;22.19;57.63
45078;BME280;60508;42.622;25.416;2023-06-10T07:42:20;96309.25;;;22.30;57.40
45078;BME280;60508;42.622;25.416;2023-06-10T07:44:47;96313.22;;;22.41;56.86
45078;BME280;60508;42.622;25.416;2023-06-10T07:47:13;96302.19;;;22.29;57.21
45078;BME280;60508;42.622;25.416;2023-06-10T07:49:40;96303.25;;;22.36;56.13
45078;BME280;60508;42.622;25.416;2023-06-10T07:52:08;96303.59;;;22.35;57.64
45078;BME280;60508;42.622;25.416;2023-06-10T07:54:34;96305.06;;;22.32;57.46
45078;BME280;60508;42.622;25.416;2023-06-10T07:57:08;96306.03;;;22.28;57.32
45078;BME280;60508;42.622;25.416;2023-06-10T07:59:35;96303.72;;;22.09;57.25
45078;BME280;60508;42.622;25.416;2023-06-10T08:02:01;96311.59;;;22.10;59.68
45078;BME280;60508;42.622;25.416;2023-06-10T08:04:28;96306.84;;;21.98;62.32
45078;BME280;60508;42.622;25.416;2023-06-10T08:06:54;96314.91;;;21.86;64.35
45078;BME280;60508;42.622;25.416;2023-06-10T08:09:21;96308.66;;;21.85;63.75
45078;BME280;60508;42.622;25.416;2023-06-10T08:11:49;96307.22;;;21.79;63.23
45078;BME280;60508;42.622;25.416;2023-06-10T08:14:16;96306.13;;;21.80;63.23
45078;BME280;60508;42.622;25.416;2023-06-10T08:16:48;96310.09;;;21.83;62.58
45078;BME280;60508;42.622;25.416;2023-06-10T08:19:15;96306.53;;;21.91;60.40
45078;BME280;60508;42.622;25.416;2023-06-10T08:21:41;96310.03;;;22.00;59.72
45078;BME280;60508;42.622;25.416;2023-06-10T08:24:16;96306.78;;;22.07;59.47
45078;BME280;60508;42.622;25.416;2023-06-10T08:26:45;96300.94;;;22.17;58.34
45078;BME280;60508;42.622;25.416;2023-06-10T08:29:12;96309.72;;;22.32;58.97
45078;BME280;60508;42.622;25.416;2023-06-10T08:31:47;96305.22;;;22.36;58.37
45078;BME280;60508;42.622;25.416;2023-06-10T08:34:13;96291.06;;;22.34;56.69
45078;BME280;60508;42.622;25.416;2023-06-10T08:36:40;96308.31;;;22.55;57.32
45078;BME280;60508;42.622;25.416;2023-06-10T08:39:09;96308.31;;;22.76;56.03
45078;BME280;60508;42.622;25.416;2023-06-10T08:41:42;96313.44;;;22.99;55.33
45078;BME280;60508;42.622;25.416;2023-06-10T08:46:44;96316.63;;;23.43;53.69
45078;BME280;60508;42.622;25.416;2023-06-10T08:49:20;96311.16;;;23.56;51.15
45078;BME280;60508;42.622;25.416;2023-06-10T08:51:58;96301.13;;;23.72;50.46
45078;BME280;60508;42.622;25.416;2023-06-10T08:54:31;96295.22;;;23.95;49.41
45078;BME280;60508;42.622;25.416;2023-06-10T08:56:59;96304.16;;;24.04;48.21
45078;BME280;60508;42.622;25.416;2023-06-10T08:59:29;96296.72;;;24.17;48.93
45078;BME280;60508;42.622;25.416;2023-06-10T09:02:05;96302.78;;;24.10;48.04
45078;BME280;60508;42.622;25.416;2023-06-10T09:04:33;96304.50;;;24.15;47.60
45078;BME280;60508;42.622;25.416;2023-06-10T09:07:00;96298.09;;;24.23;45.75
45078;BME280;60508;42.622;25.416;2023-06-10T09:09:28;96305.75;;;24.42;45.77
45078;BME280;60508;42.622;25.416;2023-06-10T09:11:57;96302.53;;;24.52;46.51
45078;BME280;60508;42.622;25.416;2023-06-10T09:14:29;96292.59;;;24.60;44.35
45078;BME280;60508;42.622;25.416;2023-06-10T09:16:55;96294.75;;;24.54;43.74
45078;BME280;60508;42.622;25.416;2023-06-10T09:19:25;96289.59;;;24.53;43.40
45078;BME280;60508;42.622;25.416;2023-06-10T09:21:51;96295.69;;;24.58;42.53
45078;BME280;60508;42.622;25.416;2023-06-10T09:24:25;96293.97;;;24.66;41.56
45078;BME280;60508;42.622;25.416;2023-06-10T09:27:07;96288.06;;;24.80;42.72
45078;BME280;60508;42.622;25.416;2023-06-10T09:32:13;96281.84;;;24.95;42.17
45078;BME280;60508;42.622;25.416;2023-06-10T09:34:40;96281.34;;;25.06;41.04
45078;BME280;60508;42.622;25.416;2023-06-10T09:37:20;96275.44;;;25.20;41.02
45078;BME280;60508;42.622;25.416;2023-06-10T09:40:02;96282.44;;;25.17;38.85
45078;BME280;60508;42.622;25.416;2023-06-10T09:42:32;96275.31;;;25.28;41.82
45078;BME280;60508;42.622;25.416;2023-06-10T09:45:00;96264.63;;;25.27;40.64
45078;BME280;60508;42.622;25.416;2023-06-10T09:47:34;96269.94;;;25.20;41.19
45078;BME280;60508;42.622;25.416;2023-06-10T09:50:01;96268.78;;;25.05;41.05
45078;BME280;60508;42.622;25.416;2023-06-10T09:52:28;96263.91;;;24.86;40.89
45078;BME280;60508;42.622;25.416;2023-06-10T09:55:00;96272.34;;;24.93;41.82
45078;BME280;60508;42.622;25.416;2023-06-10T09:57:35;96262.25;;;24.97;40.82
45078;BME280;60508;42.622;25.416;2023-06-10T10:00:10;96269.69;;;24.96;40.30
45078;BME280;60508;42.622;25.416;2023-06-10T10:02:51;96265.28;;;24.92;40.75
45078;BME280;60508;42.622;25.416;2023-06-10T10:05:20;96265.31;;;24.79;41.39
45078;BME280;60508;42.622;25.416;2023-06-10T10:07:47;96255.19;;;24.84;42.49
45078;BME280;60508;42.622;25.416;2023-06-10T10:10:23;96265.50;;;24.87;40.72
45078;BME280;60508;42.622;25.416;2023-06-10T10:12:55;96259.72;;;24.76;40.91
45078;BME280;60508;42.622;25.416;2023-06-10T10:15:24;96261.28;;;24.77;41.09
45078;BME280;60508;42.622;25.416;2023-06-10T10:18:14;96256.91;;;24.88;41.77
45078;BME280;60508;42.622;25.416;2023-06-10T10:20:50;96256.34;;;25.11;41.52
45078;BME280;60508;42.622;25.416;2023-06-10T10:23:23;96259.63;;;25.45;40.78
45078;BME280;60508;42.622;25.416;2023-06-10T10:25:52;96254.84;;;25.58;40.09
45078;BME280;60508;42.622;25.416;2023-06-10T10:28:21;96259.22;;;25.75;40.90
45078;BME280;60508;42.622;25.416;2023-06-10T10:30:53;96249.97;;;25.67;40.53
45078;BME280;60508;42.622;25.416;2023-06-10T10:33:31;96249.91;;;25.79;41.19
45078;BME280;60508;42.622;25.416;2023-06-10T10:36:00;96246.69;;;25.93;40.86
45078;BME280;60508;42.622;25.416;2023-06-10T10:38:28;96249.28;;;26.02;40.42
45078;BME280;60508;42.622;25.416;2023-06-10T10:40:55;96243.59;;;26.11;40.02
45078;BME280;60508;42.622;25.416;2023-06-10T10:43:26;96245.19;;;25.96;39.60
45078;BME280;60508;42.622;25.416;2023-06-10T10:46:00;96236.66;;;25.53;40.73
45078;BME280;60508;42.622;25.416;2023-06-10T10:48:33;96240.03;;;25.46;40.58
45078;BME280;60508;42.622;25.416;2023-06-10T10:51:01;96242.97;;;25.38;40.65
45078;BME280;60508;42.622;25.416;2023-06-10T10:53:30;96246.31;;;25.31;40.68
45078;BME280;60508;42.622;25.416;2023-06-10T10:56:09;96246.16;;;25.40;40.88
45078;BME280;60508;42.622;25.416;2023-06-10T10:59:05;96250.44;;;25.25;41.67
45078;BME280;60508;42.622;25.416;2023-06-10T11:01:43;96246.06;;;25.36;41.69
45078;BME280;60508;42.622;25.416;2023-06-10T11:04:12;96246.09;;;25.68;45.11
45078;BME280;60508;42.622;25.416;2023-06-10T11:06:39;96246.06;;;25.52;48.64
45078;BME280;60508;42.622;25.416;2023-06-10T11:09:31;96230.81;;;25.55;48.37
45078;BME280;60508;42.622;25.416;2023-06-10T11:12:08;96235.09;;;25.68;48.72
45078;BME280;60508;42.622;25.416;2023-06-10T11:14:34;96238.00;;;25.59;47.72
45078;BME280;60508;42.622;25.416;2023-06-10T11:17:18;96228.31;;;25.49;45.94
45078;BME280;60508;42.622;25.416;2023-06-10T11:19:45;96232.06;;;25.73;45.73
45078;BME280;60508;42.622;25.416;2023-06-10T11:22:17;96229.75;;;25.59;44.85
45078;BME280;60508;42.622;25.416;2023-06-10T11:24:52;96230.47;;;26.04;45.03
45078;BME280;60508;42.622;25.416;2023-06-10T11:27:23;96227.31;;;26.21;44.85
45078;BME280;60508;42.622;25.416;2023-06-10T11:32:30;96224.66;;;26.45;42.80
45078;BME280;60508;42.622;25.416;2023-06-10T11:35:03;96226.94;;;26.39;42.99
45078;BME280;60508;42.622;25.416;2023-06-10T11:37:39;96216.44;;;26.64;41.93
45078;BME280;60508;42.622;25.416;2023-06-10T11:40:07;96217.25;;;26.84;41.69
45078;BME280;60508;42.622;25.416;2023-06-10T11:42:40;96224.50;;;26.73;41.27
45078;BME280;60508;42.622;25.416;2023-06-10T11:45:07;96208.09;;;26.60;42.79
45078;BME280;60508;42.622;25.416;2023-06-10T11:47:34;96201.28;;;26.74;41.83
45078;BME280;60508;42.622;25.416;2023-06-10T11:50:01;96204.75;;;27.10;41.62
45078;BME280;60508;42.622;25.416;2023-06-10T11:52:35;96192.41;;;27.46;40.34
45078;BME280;60508;42.622;25.416;2023-06-10T11:55:07;96190.31;;;27.63;39.75
45078;BME280;60508;42.622;25.416;2023-06-10T11:57:35;96185.72;;;27.71;39.78
45078;BME280;60508;42.622;25.416;2023-06-10T12:00:06;96197.44;;;27.41;39.35
45078;BME280;60508;42.622;25.416;2023-06-10T12:02:37;96182.66;;;27.53;39.85
45078;BME280;60508;42.622;25.416;2023-06-10T12:05:14;96173.72;;;27.36;40.31
45078;BME280;60508;42.622;25.416;2023-06-10T12:07:41;96178.13;;;27.41;39.97
45078;BME280;60508;42.622;25.416;2023-06-10T12:10:08;96169.72;;;27.33;40.75
45078;BME280;60508;42.622;25.416;2023-06-10T12:12:35;96173.66;;;27.56;40.03
45078;BME280;60508;42.622;25.416;2023-06-10T12:15:09;96166.97;;;27.83;39.98
45078;BME280;60508;42.622;25.416;2023-06-10T12:17:37;96166.56;;;28.08;39.91
45078;BME280;60508;42.622;25.416;2023-06-10T12:20:08;96176.09;;;28.11;39.01
45078;BME280;60508;42.622;25.416;2023-06-10T12:22:44;96161.28;;;27.96;38.59
45078;BME280;60508;42.622;25.416;2023-06-10T12:25:11;96165.19;;;27.68;39.53
45078;BME280;60508;42.622;25.416;2023-06-10T12:27:38;96158.09;;;27.44;39.90
45078;BME280;60508;42.622;25.416;2023-06-10T12:30:05;96172.03;;;27.08;39.52
45078;BME280;60508;42.622;25.416;2023-06-10T12:32:43;96171.31;;;26.92;39.92
45078;BME280;60508;42.622;25.416;2023-06-10T12:35:19;96175.72;;;26.96;40.13
45078;BME280;60508;42.622;25.416;2023-06-10T12:38:03;96170.22;;;26.96;39.98
45078;BME280;60508;42.622;25.416;2023-06-10T12:40:40;96166.97;;;26.91;40.36
45078;BME280;60508;42.622;25.416;2023-06-10T12:43:07;96173.88;;;26.81;40.49
45078;BME280;60508;42.622;25.416;2023-06-10T12:45:38;96161.13;;;26.73;40.69
45078;BME280;60508;42.622;25.416;2023-06-10T12:48:22;96169.44;;;26.57;39.70
45078;BME280;60508;42.622;25.416;2023-06-10T12:50:55;96158.13;;;26.42;39.78
45078;BME280;60508;42.622;25.416;2023-06-10T12:53:28;96159.94;;;26.35;40.78
45078;BME280;60508;42.622;25.416;2023-06-10T12:55:54;96138.38;;;26.21;39.88
45078;BME280;60508;42.622;25.416;2023-06-10T12:58:22;96153.44;;;26.08;40.26
45078;BME280;60508;42.622;25.416;2023-06-10T13:00:56;96152.03;;;26.14;41.60
45078;BME280;60508;42.622;25.416;2023-06-10T13:03:23;96161.25;;;26.21;41.33
45078;BME280;60508;42.622;25.416;2023-06-10T13:05:49;96157.47;;;26.30;41.12
45078;BME280;60508;42.622;25.416;2023-06-10T13:08:23;96146.97;;;26.55;41.35
45078;BME280;60508;42.622;25.416;2023-06-10T13:10:49;96160.53;;;26.83;41.02
45078;BME280;60508;42.622;25.416;2023-06-10T13:13:16;96141.03;;;27.15;40.13
45078;BME280;60508;42.622;25.416;2023-06-10T13:15:51;96143.84;;;27.19;39.71